Time;durP1;ratioP1;P1;durP2;ratioP2;P2;SDS_P1;SDS_P2;PMS_P1;PMS_P2;Temp;Humidity;BMP_temperature;BMP_pressure;BME280_temperature;BME280_humidity;BME280_pressure;Samples;Min_cycle;Max_cycle;Signal;HPM_P1;HPM_P2
2022/10/11 00:02:16;;;;;;;9.13;2.45;;;9.00;77.30;;;;;;9181067;19;20037;-63
2022/10/11 00:05:32;;;;;;;11.10;2.90;;;9.00;77.40;;;;;;9179914;19;20021;-61
2022/10/11 00:08:36;;;;;;;12.68;3.00;;;9.00;77.40;;;;;;9180702;19;21003;-66
2022/10/11 00:11:50;;;;;;;;;;;9.00;77.40;;;;;;9181634;19;20015;-62
2022/10/11 00:15:05;;;;;;;11.85;3.00;;;8.90;77.40;;;;;;9180414;19;19923;-62
2022/10/11 00:18:19;;;;;;;15.05;3.10;;;8.90;77.20;;;;;;9177795;19;20006;-63
2022/10/11 00:21:35;;;;;;;;;;;8.90;77.30;;;;;;9181620;19;20011;-61
2022/10/11 00:24:49;;;;;;;9.45;2.50;;;8.90;77.40;;;;;;9176198;19;19922;-63
2022/10/11 00:28:03;;;;;;;9.10;3.00;;;8.90;77.20;;;;;;9180320;19;20017;-61
2022/10/11 00:31:17;;;;;;;9.20;2.38;;;8.80;77.30;;;;;;9179685;19;20047;-61
2022/10/11 00:34:31;;;;;;;10.43;2.38;;;8.80;77.40;;;;;;9179544;19;20754;-62
2022/10/11 00:37:47;;;;;;;11.57;2.63;;;8.80;77.40;;;;;;9176781;19;20045;-60
2022/10/11 00:41:01;;;;;;;14.75;2.95;;;8.70;77.40;;;;;;9177930;19;20011;-62
2022/10/11 00:44:20;;;;;;;8.85;1.92;;;8.70;77.50;;;;;;9179811;19;20037;-61
2022/10/11 00:47:34;;;;;;;7.82;2.10;;;8.70;77.50;;;;;;9178920;19;20022;-62
2022/10/11 00:50:48;;;;;;;9.85;2.45;;;8.70;77.50;;;;;;9179688;19;20011;-63
2022/10/11 00:54:04;;;;;;;7.05;2.20;;;8.60;77.50;;;;;;9177484;19;20048;-62
2022/10/11 00:57:21;;;;;;;13.18;2.63;;;8.60;77.50;;;;;;9177352;19;20007;-61
2022/10/11 01:00:35;;;;;;;8.93;2.58;;;8.60;77.60;;;;;;9178198;19;20018;-62
2022/10/11 01:03:49;;;;;;;8.55;2.13;;;8.60;77.60;;;;;;9176102;19;20018;-61
2022/10/11 01:07:03;;;;;;;12.68;2.20;;;8.60;77.60;;;;;;9178179;19;20506;-62
2022/10/11 01:10:19;;;;;;;6.80;1.88;;;8.50;77.60;;;;;;9178206;19;20472;-63
2022/10/11 01:13:47;;;;;;;10.00;2.03;;;8.50;77.60;;;;;;9177187;19;20006;-62
2022/10/11 01:16:58;;;;;;;9.45;2.05;;;8.50;77.70;;;;;;9176895;19;20022;-61
2022/10/11 01:20:45;;;;;;;3.95;1.73;;;8.50;77.70;;;;;;9176444;19;20115;-63
2022/10/11 01:24:06;;;;;;;8.90;1.88;;;8.40;77.70;;;;;;9168853;19;20121;-60
2022/10/11 01:27:41;;;;;;;7.53;1.60;;;8.40;77.70;;;;;;9177989;19;20022;-60
2022/10/11 01:30:47;;;;;;;7.60;1.92;;;8.40;77.80;;;;;;9178141;19;20053;-66
2022/10/11 01:33:55;;;;;;;10.65;2.20;;;8.30;77.60;;;;;;9178192;19;20011;-64
2022/10/11 01:37:05;;;;;;;7.80;2.00;;;8.30;77.70;;;;;;9175700;19;20018;-60
2022/10/11 01:40:13;;;;;;;4.65;1.65;;;8.30;77.80;;;;;;9177697;19;20127;-62
2022/10/11 01:43:18;;;;;;;6.20;2.45;;;8.30;77.80;;;;;;9175691;19;20015;-62
2022/10/11 01:46:25;;;;;;;3.10;1.45;;;8.30;77.80;;;;;;9178099;19;20543;-61
2022/10/11 01:49:40;;;;;;;2.65;1.58;;;8.20;77.70;;;;;;9182912;19;20011;-64
2022/10/11 01:52:56;;;;;;;4.10;1.70;;;8.20;77.70;;;;;;9184007;19;20014;-64
2022/10/11 01:56:23;;;;;;;3.42;1.50;;;8.20;77.80;;;;;;9182483;19;20022;-63
2022/10/11 01:59:48;;;;;;;4.13;1.20;;;8.10;77.80;;;;;;9185006;19;20018;-62
2022/10/11 02:03:19;;;;;;;3.90;1.48;;;8.10;77.80;;;;;;9185557;19;20026;-62
2022/10/11 02:06:40;;;;;;;8.80;1.45;;;8.10;77.90;;;;;;9182745;19;20015;-62
2022/10/11 02:09:59;;;;;;;6.00;1.55;;;8.10;77.90;;;;;;9185031;19;20014;-62
2022/10/11 02:13:19;;;;;;;7.13;1.27;;;8.10;77.90;;;;;;9185703;19;20019;-63
2022/10/11 02:16:39;;;;;;;3.05;1.45;;;8.00;77.80;;;;;;9182476;19;20014;-63
2022/10/11 02:19:59;;;;;;;3.53;1.30;;;8.00;77.80;;;;;;9184207;19;20018;-60
2022/10/11 02:23:16;;;;;;;4.90;1.52;;;8.00;77.80;;;;;;9179170;19;20018;-63
2022/10/11 02:26:33;;;;;;;3.92;1.50;;;8.00;77.90;;;;;;9184036;19;20034;-63
2022/10/11 02:29:49;;;;;;;4.13;1.60;;;7.90;77.80;;;;;;9183550;19;20031;-60
2022/10/11 02:33:06;;;;;;;6.25;1.70;;;7.90;77.80;;;;;;9183183;19;20379;-61
2022/10/11 02:36:16;;;;;;;2.15;1.33;;;7.90;77.90;;;;;;9184329;19;20014;-63
2022/10/11 02:39:35;;;;;;;3.38;1.42;;;7.90;78.00;;;;;;9183301;19;20015;-62
2022/10/11 02:42:57;;;;;;;2.53;1.27;;;7.80;77.80;;;;;;9183845;19;20026;-62
2022/10/11 02:46:11;;;;;;;2.40;1.10;;;7.80;77.90;;;;;;9182272;19;20025;-62
2022/10/11 02:49:27;;;;;;;4.82;1.80;;;7.80;77.90;;;;;;9183082;19;20635;-62
2022/10/11 02:52:42;;;;;;;3.17;1.23;;;7.80;77.90;;;;;;9183036;19;20014;-61
2022/10/11 02:55:57;;;;;;;5.30;1.20;;;7.80;77.90;;;;;;9182959;19;20506;-63
2022/10/11 02:59:10;;;;;;;;;;;7.70;77.90;;;;;;9182170;19;20035;-60
2022/10/11 03:02:24;;;;;;;5.75;2.33;;;7.70;78.00;;;;;;9182861;19;19922;-64
2022/10/11 03:05:42;;;;;;;6.93;1.90;;;7.70;77.80;;;;;;9181031;19;20014;-62
2022/10/11 03:08:58;;;;;;;3.53;1.33;;;7.70;78.20;;;;;;9182976;19;20018;-61
2022/10/11 03:12:12;;;;;;;3.95;1.75;;;7.70;77.90;;;;;;9183786;19;20026;-60
2022/10/11 03:15:26;;;;;;;5.07;1.85;;;7.60;77.90;;;;;;9181875;19;20813;-61
2022/10/11 03:18:40;;;;;;;8.45;2.15;;;7.60;77.90;;;;;;9180485;19;20018;-61
2022/10/11 03:21:54;;;;;;;5.13;1.60;;;7.60;78.00;;;;;;9182167;19;20010;-63
2022/10/11 03:25:10;;;;;;;4.15;1.70;;;7.60;78.00;;;;;;9177667;19;20037;-62
2022/10/11 03:28:14;;;;;;;3.63;1.73;;;7.50;78.00;;;;;;9182542;19;20471;-61
2022/10/11 03:31:28;;;;;;;8.10;1.98;;;7.50;77.90;;;;;;9178983;19;20037;-60
2022/10/11 03:34:42;;;;;;;3.60;1.77;;;7.50;78.00;;;;;;9180509;19;20019;-62
2022/10/11 03:37:55;;;;;;;4.78;1.70;;;7.50;78.00;;;;;;9180002;19;20014;-62
2022/10/11 03:41:11;;;;;;;8.13;1.98;;;7.40;78.00;;;;;;9182011;19;20486;-62
2022/10/11 03:44:25;;;;;;;5.90;1.73;;;7.40;77.90;;;;;;9182267;19;20039;-62
2022/10/11 03:47:40;;;;;;;6.50;1.63;;;7.40;78.00;;;;;;9180190;19;20027;-61
2022/10/11 03:50:54;;;;;;;3.80;1.40;;;7.30;77.90;;;;;;9180761;19;20029;-62
2022/10/11 03:54:08;;;;;;;5.60;1.77;;;7.30;78.00;;;;;;9181156;19;20022;-63
2022/10/11 03:57:24;;;;;;;4.88;1.63;;;7.30;78.00;;;;;;9178268;19;20018;-61
2022/10/11 04:00:38;;;;;;;5.00;1.75;;;7.30;78.10;;;;;;9181406;19;20007;-62
2022/10/11 04:03:55;;;;;;;;;;;7.20;78.00;;;;;;9181257;19;20483;-64
2022/10/11 04:07:09;;;;;;;4.40;1.50;;;7.20;78.00;;;;;;9180804;19;19946;-62
2022/10/11 04:10:23;;;;;;;4.15;1.45;;;7.20;77.90;;;;;;9178571;19;20018;-62
2022/10/11 04:13:39;;;;;;;3.28;1.60;;;7.10;78.00;;;;;;9180179;19;20486;-63
2022/10/11 04:16:53;;;;;;;2.28;1.60;;;7.10;78.00;;;;;;9179897;19;20118;-62
2022/10/11 04:20:02;;;;;;;4.53;1.70;;;7.10;78.00;;;;;;9179963;19;20486;-61
2022/10/11 04:23:16;;;;;;;4.72;1.85;;;7.10;78.00;;;;;;9176132;19;20018;-63
2022/10/11 04:26:30;;;;;;;2.22;1.70;;;7.00;78.00;;;;;;9178830;19;20483;-64
2022/10/11 04:29:36;;;;;;;2.83;1.70;;;7.00;78.00;;;;;;9180026;19;20030;-62
2022/10/11 04:32:50;;;;;;;4.00;1.63;;;7.00;78.00;;;;;;9178592;19;20025;-61
2022/10/11 04:36:04;;;;;;;4.65;1.90;;;7.00;78.00;;;;;;9180078;19;20020;-63
2022/10/11 04:39:19;;;;;;;5.47;1.50;;;6.90;78.00;;;;;;9176390;19;20015;-61
2022/10/11 04:42:33;;;;;;;4.53;1.38;;;6.90;78.00;;;;;;9178637;19;20015;-63
2022/10/11 04:45:49;;;;;;;4.40;1.50;;;6.90;78.00;;;;;;9176573;19;20359;-63
2022/10/11 04:49:08;;;;;;;3.75;1.27;;;6.90;78.10;;;;;;9174432;19;20026;-60
2022/10/11 04:52:12;;;;;;;3.67;1.50;;;6.80;78.00;;;;;;9179354;19;20025;-62
2022/10/11 04:55:16;;;;;;;6.88;1.52;;;6.80;78.10;;;;;;9178909;19;20021;-61
2022/10/11 04:58:30;;;;;;;2.55;1.30;;;6.80;78.10;;;;;;9177813;19;20780;-61
2022/10/11 05:01:46;;;;;;;2.00;1.63;;;6.80;78.10;;;;;;9177263;19;20026;-61
2022/10/11 05:05:00;;;;;;;2.80;1.30;;;6.80;78.20;;;;;;9176596;19;20041;-63
2022/10/11 05:08:14;;;;;;;2.10;1.35;;;6.80;78.10;;;;;;9177320;19;20032;-62
2022/10/11 05:11:19;;;;;;;3.15;1.40;;;6.70;78.10;;;;;;9179761;19;20031;-61
2022/10/11 05:14:33;;;;;;;3.67;1.15;;;6.70;78.10;;;;;;9178823;19;20111;-61
2022/10/11 05:17:49;;;;;;;2.10;1.30;;;6.70;78.10;;;;;;9179383;19;20021;-62
2022/10/11 05:21:00;;;;;;;8.75;1.52;;;6.70;78.10;;;;;;9176364;19;20046;-61
2022/10/11 05:24:14;;;;;;;4.50;1.60;;;6.70;78.20;;;;;;9168476;19;20036;-60
2022/10/11 05:27:27;;;;;;;5.40;1.40;;;6.70;78.10;;;;;;9177307;19;20474;-61
2022/10/11 05:30:41;;;;;;;8.65;1.70;;;6.60;78.00;;;;;;9177886;19;20022;-61
2022/10/11 05:33:58;;;;;;;6.18;1.88;;;6.60;78.00;;;;;;9177510;19;20419;-63
2022/10/11 05:37:12;;;;;;;3.47;1.90;;;6.60;78.10;;;;;;9177120;19;20042;-61
2022/10/11 05:40:26;;;;;;;4.00;2.47;;;6.60;78.10;;;;;;9170068;19;20022;-63
2022/10/11 05:43:40;;;;;;;4.05;1.90;;;6.50;78.10;;;;;;9160526;19;20388;-62
2022/10/11 05:46:54;;;;;;;3.17;1.85;;;6.50;78.10;;;;;;9167397;19;20018;-63
2022/10/11 05:50:10;;;;;;;6.38;1.98;;;6.50;78.10;;;;;;9171342;19;20025;-63
2022/10/11 05:53:24;;;;;;;6.30;2.08;;;6.50;78.10;;;;;;9168757;19;20025;-62
2022/10/11 05:56:38;;;;;;;8.98;1.73;;;6.50;78.20;;;;;;9163434;19;20046;-64
2022/10/11 05:59:52;;;;;;;3.80;1.80;;;6.50;78.20;;;;;;9169559;19;20748;-63
2022/10/11 06:03:07;;;;;;;4.07;1.90;;;6.50;78.20;;;;;;9170379;19;20425;-62
2022/10/11 06:06:23;;;;;;;13.93;2.35;;;6.40;78.20;;;;;;9166894;19;20337;-63
2022/10/11 06:09:38;;;;;;;8.48;2.40;;;6.40;78.20;;;;;;9163689;19;20025;-62
2022/10/11 06:12:52;;;;;;;5.28;2.30;;;6.40;78.20;;;;;;9169266;19;20504;-63
2022/10/11 06:16:07;;;;;;;3.70;2.13;;;6.40;78.20;;;;;;9174647;19;20378;-64
2022/10/11 06:19:11;;;;;;;11.27;2.80;;;6.40;78.30;;;;;;9173730;19;20034;-60
2022/10/11 06:22:27;;;;;;;4.85;1.95;;;6.40;78.30;;;;;;9175297;19;20491;-64
2022/10/11 06:25:41;;;;;;;6.47;2.40;;;6.40;78.30;;;;;;9174500;19;20074;-63
2022/10/11 06:28:55;;;;;;;8.85;2.38;;;6.40;78.30;;;;;;9173955;19;20007;-62
2022/10/11 06:32:09;;;;;;;6.63;2.63;;;6.40;78.40;;;;;;9174603;19;20090;-61
2022/10/11 06:35:23;;;;;;;8.10;2.67;;;6.40;78.30;;;;;;9182049;19;20018;-61
2022/10/11 06:38:38;;;;;;;6.00;2.03;;;6.40;78.40;;;;;;9183624;19;20018;-63
2022/10/11 06:41:58;;;;;;;7.30;2.28;;;6.40;78.40;;;;;;9183700;19;20014;-62
2022/10/11 06:45:12;;;;;;;;;;;6.40;78.40;;;;;;9182795;19;20410;-61
2022/10/11 06:48:26;;;;;;;5.75;2.63;;;6.50;78.50;;;;;;9182177;19;19919;-61
2022/10/11 06:51:40;;;;;;;10.88;4.20;;;6.50;78.40;;;;;;9181504;19;20027;-61
2022/10/11 06:54:56;;;;;;;7.80;3.45;;;6.50;78.50;;;;;;9182708;19;20029;-61
2022/10/11 06:58:10;;;;;;;5.50;2.92;;;6.50;78.60;;;;;;9182630;19;20026;-62
2022/10/11 07:01:24;;;;;;;13.52;3.55;;;6.50;78.60;;;;;;9183014;19;20015;-61
2022/10/11 07:04:38;;;;;;;7.38;3.13;;;6.60;78.70;;;;;;9182165;19;20082;-61
2022/10/11 07:07:52;;;;;;;16.17;3.53;;;6.60;78.70;;;;;;9183208;19;20059;-62
2022/10/11 07:11:09;;;;;;;7.68;3.05;;;6.70;78.90;;;;;;9182615;19;20357;-60
2022/10/11 07:14:24;;;;;;;14.68;3.17;;;6.80;79.00;;;;;;9181408;19;20035;-62
2022/10/11 07:17:38;;;;;;;18.40;6.90;;;6.90;79.10;;;;;;9182093;19;20018;-61
2022/10/11 07:20:52;;;;;;;18.75;4.07;;;7.00;79.10;;;;;;9182144;19;20044;-61
2022/10/11 07:24:07;;;;;;;13.00;4.13;;;7.00;79.20;;;;;;9174821;19;20026;-62
2022/10/11 07:27:24;;;;;;;13.05;4.25;;;7.10;79.30;;;;;;9179017;19;20018;-62
2022/10/11 07:30:39;;;;;;;11.63;4.10;;;7.20;79.30;;;;;;9180652;19;20039;-63
2022/10/11 07:33:53;;;;;;;18.17;5.50;;;7.30;79.40;;;;;;9178908;19;20446;-61
2022/10/11 07:37:07;;;;;;;9.48;3.72;;;7.40;79.50;;;;;;9181254;19;20063;-62
2022/10/11 07:40:21;;;;;;;17.05;3.95;;;7.50;79.60;;;;;;9181603;19;20938;-61
2022/10/11 07:43:38;;;;;;;27.25;4.57;;;7.60;79.60;;;;;;9180769;19;20483;-63
2022/10/11 07:46:52;;;;;;;13.77;4.35;;;7.70;79.60;;;;;;9176595;19;20029;-64
2022/10/11 07:50:07;;;;;;;14.43;4.82;;;7.80;79.70;;;;;;9173032;19;20810;-65
2022/10/11 07:53:21;;;;;;;16.65;4.38;;;8.00;79.80;;;;;;9175525;19;20030;-62
2022/10/11 07:56:35;;;;;;;;;;;8.10;79.80;;;;;;9175254;19;20093;-63
2022/10/11 07:59:50;;;;;;;14.68;4.30;;;8.20;79.80;;;;;;9180668;19;19919;-60
2022/10/11 08:03:05;;;;;;;18.38;4.05;;;8.30;80.20;;;;;;9181045;19;20015;-61
2022/10/11 08:06:22;;;;;;;11.35;3.88;;;8.40;79.70;;;;;;9177168;19;20011;-62
2022/10/11 08:09:36;;;;;;;17.90;4.28;;;8.50;79.80;;;;;;9166236;19;20018;-64
2022/10/11 08:12:50;;;;;;;21.27;3.92;;;8.70;79.90;;;;;;9170655;19;20019;-62
2022/10/11 08:16:13;;;;;;;18.20;3.85;;;8.80;80.00;;;;;;9167593;19;20029;-61
2022/10/11 08:19:26;;;;;;;13.88;3.45;;;8.90;80.10;;;;;;9168214;19;20023;-60
2022/10/11 08:22:40;;;;;;;17.08;4.70;;;9.00;80.00;;;;;;9162180;19;20022;-64
2022/10/11 08:25:57;;;;;;;16.67;4.32;;;9.10;80.10;;;;;;9165105;19;20375;-61
2022/10/11 08:29:13;;;;;;;15.23;4.45;;;9.20;80.20;;;;;;9166771;19;20467;-64
2022/10/11 08:32:29;;;;;;;15.60;3.70;;;9.30;80.10;;;;;;9165836;19;20022;-64
2022/10/11 08:35:44;;;;;;;16.77;4.07;;;9.50;80.30;;;;;;9168745;19;20027;-66
2022/10/11 08:38:58;;;;;;;9.05;3.88;;;9.50;80.20;;;;;;9172047;19;20023;-64
2022/10/11 08:42:17;;;;;;;21.73;4.53;;;9.70;80.30;;;;;;9173633;19;20019;-64
2022/10/11 08:45:36;;;;;;;25.05;3.65;;;9.80;80.40;;;;;;9164785;19;20014;-64
2022/10/11 08:48:46;;;;;;;8.88;3.63;;;10.00;80.40;;;;;;9169630;19;20018;-62
2022/10/11 08:52:03;;;;;;;12.00;4.38;;;10.10;81.20;;;;;;9171292;19;20050;-61
2022/10/11 08:55:22;;;;;;;23.88;4.35;;;10.20;80.50;;;;;;9167639;19;20025;-61
2022/10/11 08:58:43;;;;;;;14.52;3.50;;;10.40;80.60;;;;;;9167311;19;20021;-61
2022/10/11 09:02:03;;;;;;;23.85;4.45;;;10.60;80.70;;;;;;9178240;19;20034;-63
2022/10/11 09:05:15;;;;;;;15.15;4.05;;;10.70;80.60;;;;;;9176512;19;20053;-63
2022/10/11 09:08:37;;;;;;;15.00;3.40;;;10.90;80.70;;;;;;9175818;19;20383;-63
2022/10/11 09:12:04;;;;;;;7.93;3.22;;;11.00;80.60;;;;;;9178969;19;20010;-63
2022/10/11 09:15:27;;;;;;;16.95;3.47;;;11.20;80.70;;;;;;9178548;19;20017;-62
2022/10/11 09:19:06;;;;;;;15.50;3.75;;;11.40;80.70;;;;;;9176144;19;20037;-60
2022/10/11 09:22:32;;;;;;;14.25;3.20;;;11.60;80.80;;;;;;9177998;19;20035;-62
2022/10/11 09:25:51;;;;;;;12.70;4.07;;;11.80;80.70;;;;;;9177139;19;20033;-63
2022/10/11 09:29:11;;;;;;;15.25;3.95;;;11.90;80.70;;;;;;9174614;19;20025;-60
2022/10/11 09:32:31;;;;;;;13.40;2.83;;;12.10;80.70;;;;;;9177325;19;20014;-63
2022/10/11 09:35:47;;;;;;;19.52;4.25;;;12.30;80.60;;;;;;9172854;19;20483;-60
2022/10/11 09:39:02;;;;;;;16.60;2.75;;;12.50;80.60;;;;;;9162685;19;20082;-66
2022/10/11 09:42:11;;;;;;;15.77;3.03;;;12.70;80.50;;;;;;9170156;19;20033;-62
2022/10/11 09:45:18;;;;;;;14.35;3.20;;;12.90;80.40;;;;;;9170259;19;20082;-64
2022/10/11 09:48:24;;;;;;;12.02;3.08;;;13.00;80.40;;;;;;9172042;19;20498;-64
2022/10/11 09:51:29;;;;;;;12.05;2.95;;;13.20;80.40;;;;;;9171925;19;20023;-65
2022/10/11 09:54:43;;;;;;;11.88;2.58;;;13.40;80.30;;;;;;9171369;19;20015;-63
2022/10/11 09:57:56;;;;;;;21.02;2.67;;;13.60;80.30;;;;;;9176003;19;20090;-62
2022/10/11 10:01:03;;;;;;;17.67;3.33;;;13.80;80.30;;;;;;9177037;19;20014;-61
2022/10/11 10:04:15;;;;;;;11.30;2.55;;;13.90;80.10;;;;;;9168871;19;20424;-64
2022/10/11 10:07:19;;;;;;;15.05;2.85;;;14.10;80.10;;;;;;9166520;19;20098;-64
2022/10/11 10:10:40;;;;;;;8.93;2.92;;;14.40;80.10;;;;;;9172571;19;20043;-66
2022/10/11 10:13:46;;;;;;;17.35;2.40;;;14.60;80.00;;;;;;9179244;19;20046;-64
2022/10/11 10:17:03;;;;;;;13.20;3.17;;;14.80;79.80;;;;;;9179212;19;20019;-61
2022/10/11 10:20:18;;;;;;;11.05;2.38;;;15.10;79.70;;;;;;9178411;19;20161;-62
2022/10/11 10:23:26;;;;;;;20.27;2.75;;;15.30;79.40;;;;;;9172235;19;20015;-62
2022/10/11 10:26:33;;;;;;;13.95;2.30;;;15.60;79.30;;;;;;9175346;19;20022;-61
2022/10/11 10:29:36;;;;;;;15.82;2.13;;;15.80;78.90;;;;;;9175439;19;20543;-63
2022/10/11 10:32:47;;;;;;;13.18;2.60;;;16.10;78.60;;;;;;9174352;19;20070;-64
2022/10/11 10:35:56;;;;;;;18.45;3.03;;;16.20;78.20;;;;;;9168576;19;20022;-63
2022/10/11 10:39:08;;;;;;;9.65;2.08;;;16.40;77.90;;;;;;9171164;19;20089;-62
2022/10/11 10:42:17;;;;;;;11.43;2.40;;;16.50;77.60;;;;;;9172078;19;20017;-64
2022/10/11 10:45:26;;;;;;;13.68;2.40;;;16.60;77.20;;;;;;9171029;19;20021;-63
2022/10/11 10:48:37;;;;;;;15.27;2.25;;;16.70;77.10;;;;;;9176356;19;20114;-62
2022/10/11 10:52:18;;;;;;;12.25;2.42;;;16.80;76.90;;;;;;9176539;19;20023;-61
2022/10/11 10:55:27;;;;;;;12.63;2.63;;;17.00;76.60;;;;;;9176669;19;20399;-59
2022/10/11 10:58:52;;;;;;;12.10;1.80;;;17.10;76.50;;;;;;9177013;19;20086;-64
2022/10/11 11:02:00;;;;;;;12.23;1.98;;;17.20;76.20;;;;;;9169003;19;20011;-64
2022/10/11 11:05:33;;;;;;;13.45;2.13;;;17.30;76.00;;;;;;9164242;19;20103;-61
2022/10/11 11:08:50;;;;;;;13.20;2.10;;;17.50;75.80;;;;;;9168054;19;20018;-63
2022/10/11 11:12:07;;;;;;;13.00;2.35;;;17.60;76.00;;;;;;9173685;19;20038;-62
2022/10/11 11:15:19;;;;;;;11.13;2.08;;;17.80;75.10;;;;;;9182610;19;20013;-63
2022/10/11 11:18:38;;;;;;;15.30;3.47;;;17.90;74.80;;;;;;9176010;19;20022;-63
2022/10/11 11:21:48;;;;;;;12.10;2.67;;;18.00;74.70;;;;;;9173341;19;20022;-65
2022/10/11 11:24:59;;;;;;;19.00;2.65;;;18.10;74.80;;;;;;9167877;19;20022;-61
2022/10/11 11:28:16;;;;;;;11.25;1.98;;;18.30;74.10;;;;;;9173270;19;20019;-63
2022/10/11 11:31:37;;;;;;;15.93;3.00;;;18.40;73.80;;;;;;9173688;19;20018;-62
2022/10/11 11:34:44;;;;;;;11.73;1.80;;;18.50;73.50;;;;;;9175347;19;20073;-64
2022/10/11 11:37:50;;;;;;;13.82;2.10;;;18.60;73.40;;;;;;9175776;19;20010;-62
2022/10/11 11:41:05;;;;;;;13.15;2.38;;;18.80;73.10;;;;;;9177877;19;20014;-61
2022/10/11 11:44:14;;;;;;;15.75;2.38;;;18.90;73.00;;;;;;9180653;19;20393;-61
2022/10/11 11:47:25;;;;;;;10.98;2.20;;;19.10;72.60;;;;;;9176027;19;20085;-62
2022/10/11 11:50:38;;;;;;;12.88;1.63;;;19.10;72.10;;;;;;9172858;19;20086;-64
2022/10/11 11:53:52;;;;;;;14.27;2.50;;;19.30;71.70;;;;;;9179534;19;20022;-64
2022/10/11 11:57:01;;;;;;;9.57;2.05;;;19.30;71.60;;;;;;9174171;19;20098;-63
2022/10/11 12:00:07;;;;;;;8.30;1.42;;;19.30;71.40;;;;;;9173183;19;20094;-63
2022/10/11 12:03:28;;;;;;;12.63;2.53;;;19.40;71.30;;;;;;9166056;19;20021;-65
2022/10/11 12:06:34;;;;;;;12.02;2.17;;;19.40;70.60;;;;;;9162764;19;20094;-61
2022/10/11 12:09:43;;;;;;;19.15;2.72;;;19.40;70.80;;;;;;9165975;19;20466;-65
2022/10/11 12:12:47;;;;;;;16.77;2.97;;;19.50;70.60;;;;;;9167337;19;20019;-61
2022/10/11 12:16:01;;;;;;;14.85;2.30;;;19.50;70.50;;;;;;9172194;19;20016;-62
2022/10/11 12:19:13;;;;;;;13.77;2.05;;;19.50;70.10;;;;;;9166312;19;20011;-62
2022/10/11 12:22:33;;;;;;;6.05;1.45;;;19.60;70.20;;;;;;9169539;19;20377;-62
2022/10/11 12:25:41;;;;;;;8.32;1.88;;;19.60;70.00;;;;;;9173594;19;20011;-63
2022/10/11 12:29:04;;;;;;;11.73;1.85;;;19.60;69.70;;;;;;9167909;19;20018;-64
2022/10/11 12:32:53;;;;;;;16.25;2.80;;;19.60;69.00;;;;;;9169332;19;20015;-64
2022/10/11 12:36:02;;;;;;;13.68;2.63;;;19.60;68.70;;;;;;9173768;19;20018;-62
2022/10/11 12:39:51;;;;;;;17.85;2.50;;;19.60;69.00;;;;;;9172807;19;20014;-62
2022/10/11 12:43:11;;;;;;;10.32;2.25;;;19.50;68.30;;;;;;9167526;19;20023;-63
2022/10/11 12:46:41;;;;;;;18.23;2.17;;;19.40;68.20;;;;;;9172727;19;20063;-63
2022/10/11 12:49:54;;;;;;;12.55;1.70;;;19.30;68.10;;;;;;9170722;19;20543;-63
2022/10/11 12:53:08;;;;;;;13.23;2.45;;;19.20;68.30;;;;;;9171382;19;20101;-60
2022/10/11 12:56:19;;;;;;;13.63;2.30;;;19.10;68.30;;;;;;9176862;19;20014;-61
2022/10/11 12:59:24;;;;;;;18.08;2.15;;;18.90;68.20;;;;;;9179212;19;20022;-61
2022/10/11 13:02:36;;;;;;;10.65;1.95;;;18.80;68.20;;;;;;9179584;19;20022;-60
2022/10/11 13:05:46;;;;;;;10.43;2.13;;;18.70;68.20;;;;;;9176344;19;20022;-63
2022/10/11 13:09:04;;;;;;;11.63;1.92;;;18.60;68.00;;;;;;9177864;19;20045;-62
2022/10/11 13:12:13;;;;;;;16.10;2.55;;;18.50;68.10;;;;;;9177304;19;20078;-63
2022/10/11 13:15:21;;;;;;;15.73;1.90;;;18.40;68.20;;;;;;9171182;19;20026;-64
2022/10/11 13:18:26;;;;;;;11.45;1.90;;;18.30;68.20;;;;;;9173098;19;20352;-62
2022/10/11 13:21:34;;;;;;;21.58;3.88;;;18.20;68.30;;;;;;9176861;19;20039;-61
2022/10/11 13:24:41;;;;;;;13.25;1.95;;;18.10;68.10;;;;;;9166938;19;20020;-61
2022/10/11 13:27:45;;;;;;;14.43;2.13;;;18.00;68.00;;;;;;9175329;19;20549;-62
2022/10/11 13:30:53;;;;;;;14.77;1.80;;;17.90;68.00;;;;;;9173170;19;20061;-60
2022/10/11 13:33:58;;;;;;;12.10;2.05;;;17.80;67.90;;;;;;9173078;19;20011;-60
2022/10/11 13:37:02;;;;;;;9.60;1.77;;;17.80;67.90;;;;;;9177597;19;20427;-61
2022/10/11 13:40:14;;;;;;;11.60;1.98;;;17.70;67.90;;;;;;9176086;19;20032;-61
2022/10/11 13:43:22;;;;;;;16.05;2.40;;;17.60;67.70;;;;;;9174539;19;20022;-62
2022/10/11 13:46:28;;;;;;;16.75;1.90;;;17.60;67.80;;;;;;9178116;19;20096;-63
2022/10/11 13:49:38;;;;;;;12.60;1.95;;;17.50;67.80;;;;;;9174469;19;20026;-63
2022/10/11 13:52:56;;;;;;;14.73;2.55;;;17.50;67.80;;;;;;9175128;19;20102;-62
2022/10/11 13:56:04;;;;;;;9.55;3.10;;;17.50;67.50;;;;;;9176592;19;20370;-64
2022/10/11 13:59:16;;;;;;;11.07;2.17;;;17.40;67.60;;;;;;9177723;19;20550;-62
2022/10/11 14:02:23;;;;;;;13.05;1.77;;;17.40;67.70;;;;;;9176952;19;20026;-62
2022/10/11 14:05:31;;;;;;;9.70;1.58;;;17.30;67.50;;;;;;9171570;19;20086;-62
2022/10/11 14:08:38;;;;;;;8.43;1.50;;;17.30;67.50;;;;;;9177052;19;20018;-62
2022/10/11 14:11:44;;;;;;;9.20;1.63;;;17.20;67.40;;;;;;9170792;19;20022;-61
2022/10/11 14:14:49;;;;;;;10.90;2.00;;;17.20;67.40;;;;;;9171570;19;20518;-61
2022/10/11 14:17:52;;;;;;;9.63;1.58;;;17.10;67.30;;;;;;9172308;19;20094;-61
2022/10/11 14:20:56;;;;;;;14.70;2.58;;;17.10;67.30;;;;;;9164466;19;20022;-61
2022/10/11 14:24:03;;;;;;;7.90;1.70;;;17.00;67.20;;;;;;9167591;19;20345;-64
2022/10/11 14:27:16;;;;;;;11.10;2.15;;;16.90;67.20;;;;;;9173866;19;20085;-65
2022/10/11 14:30:22;;;;;;;10.45;1.70;;;16.90;67.10;;;;;;9170607;19;20094;-62
2022/10/11 14:33:31;;;;;;;12.77;1.60;;;16.80;67.20;;;;;;9172415;19;20018;-64
2022/10/11 14:36:34;;;;;;;10.23;1.77;;;16.70;67.30;;;;;;9173227;19;20129;-64
2022/10/11 14:39:38;;;;;;;8.27;1.98;;;16.70;67.30;;;;;;9168205;19;20014;-61
2022/10/11 14:42:44;;;;;;;;;;;16.60;67.30;;;;;;9171273;19;20030;-61
2022/10/11 14:45:48;;;;;;;8.55;2.13;;;16.60;67.50;;;;;;9161568;19;19921;-62
2022/10/11 14:48:52;;;;;;;12.35;2.25;;;16.50;67.60;;;;;;9162442;19;20015;-62
2022/10/11 14:52:00;;;;;;;13.85;1.88;;;16.50;67.50;;;;;;9169254;19;20014;-63
2022/10/11 14:55:03;;;;;;;9.32;2.47;;;16.50;67.60;;;;;;9173445;19;20034;-65
2022/10/11 14:58:10;;;;;;;17.10;2.35;;;16.40;67.50;;;;;;9175034;19;20970;-62
2022/10/11 15:01:15;;;;;;;10.20;1.73;;;16.50;67.50;;;;;;9172060;19;20014;-63
2022/10/11 15:04:24;;;;;;;13.20;2.60;;;16.40;67.50;;;;;;9173117;19;20014;-63
2022/10/11 15:07:27;;;;;;;13.65;2.33;;;16.40;67.50;;;;;;9174466;19;20018;-63
2022/10/11 15:10:35;;;;;;;13.15;2.20;;;16.40;67.40;;;;;;9168268;19;20467;-61
2022/10/11 15:13:41;;;;;;;12.68;2.05;;;16.40;67.40;;;;;;9170328;19;20007;-62
2022/10/11 15:16:44;;;;;;;9.88;2.50;;;16.30;67.30;;;;;;9169104;19;20026;-64
2022/10/11 15:19:49;;;;;;;16.48;2.28;;;16.30;67.30;;;;;;9171170;19;20456;-62
2022/10/11 15:22:53;;;;;;;9.13;1.88;;;16.30;67.40;;;;;;9168753;19;20018;-63
2022/10/11 15:25:57;;;;;;;9.50;2.35;;;16.20;67.30;;;;;;9175667;19;20118;-66
2022/10/11 15:29:02;;;;;;;10.20;2.35;;;16.20;67.30;;;;;;9176348;19;20046;-62
2022/10/11 15:32:06;;;;;;;15.23;3.17;;;16.20;67.30;;;;;;9174570;19;20021;-63
2022/10/11 15:35:11;;;;;;;8.85;1.50;;;16.10;67.30;;;;;;9173105;19;20459;-64
2022/10/11 15:38:16;;;;;;;;;;;16.10;67.30;;;;;;9172365;19;20051;-62
2022/10/11 15:41:22;;;;;;;7.63;1.58;;;16.00;67.40;;;;;;9170181;19;19990;-63
2022/10/11 15:44:28;;;;;;;13.35;1.95;;;16.00;67.50;;;;;;9176169;19;20030;-61
2022/10/11 15:47:32;;;;;;;12.68;2.20;;;15.90;67.40;;;;;;9172212;19;20007;-62
2022/10/11 15:50:37;;;;;;;11.52;2.47;;;15.80;67.40;;;;;;9170507;19;20019;-61
2022/10/11 15:53:41;;;;;;;11.38;2.17;;;15.80;67.40;;;;;;9171138;19;20396;-62
2022/10/11 15:56:45;;;;;;;;;;;15.70;67.50;;;;;;9172126;19;20018;-62
2022/10/11 15:59:50;;;;;;;9.82;2.17;;;15.70;67.60;;;;;;9168820;19;19919;-64
2022/10/11 16:02:54;;;;;;;8.80;1.70;;;15.60;67.60;;;;;;9167304;19;20018;-64
2022/10/11 16:05:59;;;;;;;14.77;2.03;;;15.60;67.70;;;;;;9161626;19;20760;-63
2022/10/11 16:09:08;;;;;;;7.25;1.50;;;15.50;67.70;;;;;;9165586;19;20019;-65
2022/10/11 16:12:12;;;;;;;13.18;2.95;;;15.50;67.80;;;;;;9164008;19;20022;-62
2022/10/11 16:15:18;;;;;;;16.55;2.67;;;15.40;67.80;;;;;;9167273;19;20051;-63
2022/10/11 16:18:22;;;;;;;11.02;2.95;;;15.40;67.90;;;;;;9165737;19;20014;-63
2022/10/11 16:21:26;;;;;;;17.63;5.70;;;15.30;68.00;;;;;;9167257;19;20492;-63
2022/10/11 16:24:30;;;;;;;16.27;5.15;;;15.30;68.10;;;;;;9163458;19;20010;-62
2022/10/11 16:27:34;;;;;;;22.75;7.20;;;15.20;68.20;;;;;;9170239;19;20448;-63
2022/10/11 16:30:41;;;;;;;21.42;6.82;;;15.20;68.20;;;;;;9171626;19;20692;-64
2022/10/11 16:33:49;;;;;;;24.27;7.75;;;15.10;68.30;;;;;;9178190;19;20018;-62
2022/10/11 16:36:52;;;;;;;18.77;6.57;;;15.00;68.30;;;;;;9172564;19;20600;-63
2022/10/11 16:39:56;;;;;;;17.65;7.13;;;15.00;68.50;;;;;;9172899;19;20025;-63
2022/10/11 16:43:02;;;;;;;23.00;7.63;;;14.90;68.50;;;;;;9172420;19;20021;-62
2022/10/11 16:46:12;;;;;;;16.80;6.20;;;14.80;68.70;;;;;;9166350;19;20094;-64